createdAt,value
2023-02-27T00:00:02.388Z,99220.22
2023-02-27T00:02:28.936Z,99209.91
2023-02-27T00:04:57.880Z,99228.81
2023-02-27T00:07:26.215Z,99227.94
2023-02-27T00:09:53.267Z,99224.50
2023-02-27T00:12:20.154Z,99215.91
2023-02-27T00:14:46.704Z,99226.25
2023-02-27T00:17:13.312Z,99221.94
2023-02-27T00:19:39.855Z,99221.94
2023-02-27T00:22:06.417Z,99218.50
2023-02-27T00:24:33.033Z,99220.22
2023-02-27T00:26:59.782Z,99225.38
2023-02-27T00:29:26.393Z,99217.66
2023-02-27T00:31:53.402Z,99221.94
2023-02-27T00:34:20.013Z,99228.84
2023-02-27T00:36:46.646Z,99216.78
2023-02-27T00:39:14.512Z,99219.38
2023-02-27T00:41:41.200Z,99210.78
2023-02-27T00:44:08.003Z,99210.78
2023-02-27T00:46:34.592Z,99216.81
2023-02-27T00:49:01.179Z,99217.66
2023-02-27T00:51:28.024Z,99204.75
2023-02-27T00:53:54.762Z,99221.06
2023-02-27T00:56:21.424Z,99226.25
2023-02-27T00:58:48.044Z,99215.09
2023-02-27T01:01:15.461Z,99217.66
2023-02-27T01:03:42.075Z,99218.50
2023-02-27T01:06:08.622Z,99209.06
2023-02-27T01:08:35.152Z,99215.94
2023-02-27T01:11:01.782Z,99216.81
2023-02-27T01:13:28.360Z,99220.25
2023-02-27T01:15:54.957Z,99226.25
2023-02-27T01:18:21.498Z,99227.09
2023-02-27T01:20:52.677Z,99218.50
2023-02-27T01:23:19.275Z,99221.94
2023-02-27T01:25:47.645Z,99216.81
2023-02-27T01:28:14.809Z,99215.94
2023-02-27T01:30:42.477Z,99221.97
2023-02-27T01:33:09.045Z,99223.66
2023-02-27T01:35:36.292Z,99227.97
2023-02-27T01:38:02.825Z,99215.94
2023-02-27T01:40:29.361Z,99224.53
2023-02-27T01:42:55.950Z,99230.53
2023-02-27T01:45:42.080Z,99221.97
2023-02-27T01:48:18.397Z,99214.22
2023-02-27T01:50:56.160Z,99212.53
2023-02-27T01:53:26.041Z,99221.09
2023-02-27T01:55:59.789Z,99209.06
2023-02-27T01:58:27.130Z,99227.97
2023-02-27T02:00:54.915Z,99217.66
2023-02-27T02:03:48.336Z,99223.66
2023-02-27T02:06:14.899Z,99227.13
2023-02-27T02:08:45.121Z,99220.22
2023-02-27T02:11:15.285Z,99208.22
2023-02-27T02:13:42.546Z,99204.78
2023-02-27T02:16:27.637Z,99205.66
2023-02-27T02:19:02.673Z,99207.38
2023-02-27T02:22:01.383Z,99207.34
2023-02-27T02:24:52.681Z,99197.94
2023-02-27T02:27:29.797Z,99203.06
2023-02-27T02:30:08.610Z,99198.78
2023-02-27T02:33:07.733Z,99204.78
2023-02-27T02:35:55.899Z,99203.06
2023-02-27T02:39:16.385Z,99200.47
2023-02-27T02:42:00.926Z,99203.91
2023-02-27T02:45:02.393Z,99202.19
2023-02-27T02:47:53.138Z,99198.78
2023-02-27T02:50:45.857Z,99202.19
2023-02-27T02:53:36.070Z,99209.06
2023-02-27T02:56:22.219Z,99209.91
2023-02-27T02:59:05.092Z,99202.22
2023-02-27T03:01:44.646Z,99197.91
2023-02-27T03:04:31.785Z,99203.06
2023-02-27T03:07:06.805Z,99204.81
2023-02-27T03:09:41.493Z,99196.19
2023-02-27T03:12:14.222Z,99202.22
2023-02-27T03:15:06.085Z,99203.06
2023-02-27T03:17:52.834Z,99199.63
2023-02-27T03:20:24.779Z,99204.75
2023-02-27T03:22:55.946Z,99216.78
2023-02-27T03:25:26.024Z,99212.50
2023-02-27T03:28:00.364Z,99203.91
2023-02-27T03:30:30.610Z,99211.66
2023-02-27T03:33:08.259Z,99210.78
2023-02-27T03:35:51.437Z,99227.09
2023-02-27T03:38:25.478Z,99221.09
2023-02-27T03:41:27.517Z,99223.66
2023-02-27T03:44:33.529Z,99228.81
2023-02-27T03:47:00.183Z,99228.81
2023-02-27T03:49:27.240Z,99227.09
2023-02-27T03:51:54.760Z,99235.66
2023-02-27T03:54:33.577Z,99227.06
2023-02-27T03:57:04.515Z,99221.06
2023-02-27T03:59:32.544Z,99227.94
2023-02-27T04:02:01.503Z,99231.38
2023-02-27T04:04:31.944Z,99231.38
2023-02-27T04:07:22.864Z,99233.94
2023-02-27T04:10:26.985Z,99238.25
2023-02-27T04:13:10.799Z,99241.69
2023-02-27T04:16:02.414Z,99247.66
2023-02-27T04:19:04.645Z,99237.41
2023-02-27T04:22:09.588Z,99245.09
2023-02-27T04:24:57.381Z,99239.09
2023-02-27T04:27:46.405Z,99239.09
2023-02-27T04:30:15.598Z,99245.09
2023-02-27T04:33:21.704Z,99249.41
2023-02-27T04:35:53.125Z,99251.97
2023-02-27T04:38:28.810Z,99252.81
2023-02-27T04:41:12.025Z,99263.13
2023-02-27T04:43:40.902Z,99257.97
2023-02-27T04:46:11.053Z,99267.41
2023-02-27T04:48:48.207Z,99264.81
2023-02-27T04:51:19.544Z,99267.38
2023-02-27T04:53:55.129Z,99258.81
2023-02-27T04:56:27.614Z,99269.09
2023-02-27T04:59:04.382Z,99267.38
2023-02-27T05:01:43.980Z,99268.25
2023-02-27T05:04:15.024Z,99272.53
2023-02-27T05:06:43.803Z,99270.81
2023-02-27T05:09:31.865Z,99275.09
2023-02-27T05:12:07.708Z,99275.94
2023-02-27T05:14:41.394Z,99272.50
2023-02-27T05:17:11.770Z,99283.69
2023-02-27T05:19:40.925Z,99280.22
2023-02-27T05:22:28.688Z,99282.78
2023-02-27T05:25:27.043Z,99281.09
2023-02-27T05:28:12.374Z,99287.94
2023-02-27T05:30:48.916Z,99290.53
2023-02-27T05:33:27.648Z,99291.38
2023-02-27T05:36:03.060Z,99285.38
2023-02-27T05:38:39.852Z,99295.66
2023-02-27T05:41:17.984Z,99289.63
2023-02-27T05:43:50.589Z,99294.78
2023-02-27T05:46:29.293Z,99289.63
2023-02-27T05:49:11.295Z,99284.47
2023-02-27T05:51:40.114Z,99289.59
2023-02-27T05:54:13.825Z,99295.63
2023-02-27T05:56:42.439Z,99294.75
2023-02-27T05:59:17.622Z,99304.19
2023-02-27T06:01:46.288Z,99303.31
2023-02-27T06:04:13.171Z,99296.44
2023-02-27T06:06:41.987Z,99293.03
2023-02-27T06:09:09.351Z,99296.47
2023-02-27T06:11:35.899Z,99287.88
2023-02-27T06:14:03.375Z,99290.47
2023-02-27T06:16:30.508Z,99287.88
2023-02-27T06:18:57.267Z,99299.88
2023-02-27T06:21:23.837Z,99298.19
2023-02-27T06:23:50.429Z,99294.72
2023-02-27T06:26:16.957Z,99305.03
2023-02-27T06:28:43.793Z,99304.19
2023-02-27T06:31:10.448Z,99305.03
2023-02-27T06:33:37.351Z,99307.63
2023-02-27T06:36:04.245Z,99314.50
2023-02-27T06:38:31.484Z,99325.66
2023-02-27T06:40:58.489Z,99326.50
2023-02-27T06:43:25.176Z,99329.94
2023-02-27T06:45:55.168Z,99330.78
2023-02-27T06:48:21.937Z,99341.09
2023-02-27T06:50:56.389Z,99334.22
2023-02-27T06:53:24.261Z,99335.97
2023-02-27T06:55:51.148Z,99341.94
2023-02-27T06:58:18.408Z,99352.25
2023-02-27T07:00:45.030Z,99352.25
2023-02-27T07:03:12.582Z,99359.13
2023-02-27T07:05:41.311Z,99365.16
2023-02-27T07:08:08.608Z,99365.19
2023-02-27T07:10:35.195Z,99369.47
2023-02-27T07:13:03.018Z,99370.34
2023-02-27T07:15:29.546Z,99363.47
2023-02-27T07:17:56.132Z,99366.03
2023-02-27T07:20:22.692Z,99372.97
2023-02-27T07:22:49.234Z,99368.66
2023-02-27T07:25:15.841Z,99367.81
2023-02-27T07:27:45.641Z,99374.69
2023-02-27T07:30:12.723Z,99379.88
2023-02-27T07:32:39.286Z,99371.31
2023-02-27T07:35:06.633Z,99367.88
2023-02-27T07:37:33.181Z,99369.59
2023-02-27T07:39:59.754Z,99374.03
2023-02-27T07:42:26.338Z,99356.78
2023-02-27T07:44:52.939Z,99363.47
2023-02-27T07:47:19.531Z,99361.44
2023-02-27T07:49:46.129Z,99363.69
2023-02-27T07:52:12.771Z,99360.28
2023-02-27T07:54:39.379Z,99350.22
2023-02-27T07:57:06.447Z,99356.69
2023-02-27T07:59:33.255Z,99346.84
2023-02-27T08:01:59.785Z,99348.63
2023-02-27T08:04:26.430Z,99349.78
2023-02-27T08:06:53.040Z,99348.78
2023-02-27T08:09:19.745Z,99348.59
2023-02-27T08:11:48.900Z,99358.66
2023-02-27T08:14:15.886Z,99349.56
2023-02-27T08:16:42.466Z,99349.69
2023-02-27T08:19:09.071Z,99355.28
2023-02-27T08:21:35.629Z,99361.38
2023-02-27T08:24:02.215Z,99351.72
2023-02-27T08:26:29.165Z,99355.78
2023-02-27T08:28:55.956Z,99353.47
2023-02-27T08:31:22.596Z,99369.06
2023-02-27T08:33:55.280Z,99364.84
2023-02-27T08:36:24.597Z,99355.16
2023-02-27T08:38:52.563Z,99358.03
2023-02-27T08:41:19.215Z,99362.38
2023-02-27T08:43:45.778Z,99363.34
2023-02-27T08:46:12.411Z,99364.59
2023-02-27T08:48:39.412Z,99363.16
2023-02-27T08:51:06.092Z,99376.28
2023-02-27T08:53:32.683Z,99369.88
2023-02-27T08:55:59.198Z,99383.47
2023-02-27T08:58:25.860Z,99371.59
2023-02-27T09:00:52.473Z,99380.31
2023-02-27T09:03:18.989Z,99383.19
2023-02-27T09:05:45.618Z,99382.78
2023-02-27T09:08:12.231Z,99383.69
2023-02-27T09:10:38.931Z,99381.69
2023-02-27T09:13:05.509Z,99388.00
2023-02-27T09:15:34.460Z,99390.16
2023-02-27T09:18:03.162Z,99383.03
2023-02-27T09:20:31.755Z,99383.97
2023-02-27T09:22:59.306Z,99387.69
2023-02-27T09:25:26.536Z,99386.75
2023-02-27T09:27:53.102Z,99383.00
2023-02-27T09:30:19.745Z,99387.72
2023-02-27T09:32:46.454Z,99395.63
2023-02-27T09:35:15.801Z,99395.88
2023-02-27T09:37:43.877Z,99389.69
2023-02-27T09:40:26.417Z,99397.47
2023-02-27T09:42:58.177Z,99403.69
2023-02-27T09:45:30.556Z,99407.44
2023-02-27T09:48:08.333Z,99416.63
2023-02-27T09:50:44.652Z,99410.63
2023-02-27T09:53:31.213Z,99405.06
2023-02-27T09:56:07.461Z,99415.75
2023-02-27T09:59:02.058Z,99422.84
2023-02-27T10:01:37.400Z,99410.66
2023-02-27T10:04:25.677Z,99411.13
2023-02-27T10:06:57.416Z,99417.22
2023-02-27T10:09:36.215Z,99413.81
2023-02-27T10:12:02.654Z,99420.28
2023-02-27T10:14:55.536Z,99418.47
2023-02-27T10:17:48.390Z,99411.53
2023-02-27T10:20:28.149Z,99412.03
2023-02-27T10:22:56.710Z,99434.47
2023-02-27T10:25:31.791Z,99425.56
2023-02-27T10:28:09.021Z,99417.59
2023-02-27T10:30:36.058Z,99428.66
2023-02-27T10:33:37.278Z,99429.16
2023-02-27T10:36:12.427Z,99416.09
2023-02-27T10:38:48.155Z,99415.13
2023-02-27T10:41:18.136Z,99426.81
2023-02-27T10:43:44.904Z,99430.34
2023-02-27T10:46:32.729Z,99421.59
2023-02-27T10:49:00.769Z,99413.25
2023-02-27T10:51:31.229Z,99415.22
2023-02-27T10:54:19.428Z,99414.88
2023-02-27T10:56:50.519Z,99411.88
2023-02-27T10:59:21.715Z,99410.72
2023-02-27T11:02:17.280Z,99417.06
2023-02-27T11:04:53.892Z,99412.34
2023-02-27T11:07:47.435Z,99410.16
2023-02-27T11:10:14.112Z,99417.84
2023-02-27T11:12:42.518Z,99417.81
2023-02-27T11:15:14.987Z,99409.34
2023-02-27T11:17:43.140Z,99404.28
2023-02-27T11:20:29.987Z,99414.69
2023-02-27T11:23:04.811Z,99409.81
2023-02-27T11:25:32.134Z,99407.19
2023-02-27T11:28:23.882Z,99408.84
2023-02-27T11:31:03.333Z,99410.69
2023-02-27T11:33:35.978Z,99409.13
2023-02-27T11:36:03.661Z,99405.91
2023-02-27T11:38:32.241Z,99405.81
2023-02-27T11:41:02.130Z,99403.84
2023-02-27T11:43:33.522Z,99400.69
2023-02-27T11:46:35.871Z,99392.41
2023-02-27T11:49:26.959Z,99397.50
2023-02-27T11:52:16.646Z,99395.84
2023-02-27T11:54:51.057Z,99399.09
2023-02-27T11:57:27.481Z,99389.44
2023-02-27T12:00:06.849Z,99384.81
2023-02-27T12:02:45.988Z,99384.94
2023-02-27T12:05:26.187Z,99376.91
2023-02-27T12:08:02.489Z,99379.41
2023-02-27T12:10:35.670Z,99378.06
2023-02-27T12:13:16.388Z,99379.94
2023-02-27T12:15:52.937Z,99374.56
2023-02-27T12:18:34.774Z,99382.25
2023-02-27T12:21:10.689Z,99361.13
2023-02-27T12:23:43.611Z,99369.25
2023-02-27T12:26:27.448Z,99360.34
2023-02-27T12:29:03.858Z,99362.66
2023-02-27T12:31:35.549Z,99371.09
2023-02-27T12:34:20.101Z,99375.34
2023-02-27T12:36:48.601Z,99365.63
2023-02-27T12:39:24.296Z,99370.44
2023-02-27T12:42:09.028Z,99361.19
2023-02-27T12:45:01.164Z,99351.53
2023-02-27T12:47:52.304Z,99345.44
2023-02-27T12:50:21.272Z,99356.66
2023-02-27T12:53:52.944Z,99346.44
2023-02-27T12:56:20.752Z,99346.44
2023-02-27T12:59:15.842Z,99363.25
2023-02-27T13:01:59.795Z,99349.97
2023-02-27T13:04:38.022Z,99349.44
2023-02-27T13:07:09.728Z,99350.19
2023-02-27T13:09:44.602Z,99348.09
2023-02-27T13:12:43.143Z,99345.56
2023-02-27T13:15:22.012Z,99344.28
2023-02-27T13:17:53.010Z,99342.66
2023-02-27T13:20:22.424Z,99340.44
2023-02-27T13:22:53.736Z,99333.22
2023-02-27T13:25:21.623Z,99350.94
2023-02-27T13:27:54.703Z,99343.31
2023-02-27T13:30:35.225Z,99353.28
2023-02-27T13:33:21.047Z,99359.81
2023-02-27T13:35:47.625Z,99336.81
2023-02-27T13:38:32.895Z,99340.22
2023-02-27T13:41:25.052Z,99342.34
2023-02-27T13:43:53.713Z,99333.69
2023-02-27T13:46:26.355Z,99340.53
2023-02-27T13:49:05.033Z,99340.66
2023-02-27T13:51:43.657Z,99333.91
2023-02-27T13:54:13.277Z,99337.75
2023-02-27T13:56:43.110Z,99340.56
2023-02-27T13:59:24.212Z,99333.66
2023-02-27T14:02:03.633Z,99343.06
2023-02-27T14:04:34.598Z,99348.72
2023-02-27T14:07:12.025Z,99341.16
2023-02-27T14:09:42.651Z,99343.53
2023-02-27T14:12:44.072Z,99352.44
2023-02-27T14:15:17.448Z,99361.53
2023-02-27T14:17:46.360Z,99355.78
2023-02-27T14:20:12.865Z,99365.25
2023-02-27T14:23:17.444Z,99359.75
2023-02-27T14:25:53.014Z,99350.94
2023-02-27T14:28:31.822Z,99349.56
2023-02-27T14:31:05.969Z,99355.78
2023-02-27T14:33:46.795Z,99363.28
2023-02-27T14:36:28.967Z,99363.97
2023-02-27T14:38:58.168Z,99361.50
2023-02-27T14:41:49.473Z,99363.28
2023-02-27T14:44:18.897Z,99363.84
2023-02-27T14:46:45.557Z,99355.38
2023-02-27T14:49:33.171Z,99364.53
2023-02-27T14:52:29.732Z,99357.06
2023-02-27T14:55:13.215Z,99354.28
2023-02-27T14:57:40.088Z,99376.19
2023-02-27T15:00:07.565Z,99377.19
2023-02-27T15:02:36.225Z,99377.13
2023-02-27T15:05:02.700Z,99371.47
2023-02-27T15:07:32.066Z,99365.09
2023-02-27T15:10:06.141Z,99367.69
2023-02-27T15:12:38.377Z,99370.31
2023-02-27T15:15:07.881Z,99364.63
2023-02-27T15:17:41.328Z,99370.19
2023-02-27T15:20:23.427Z,99366.28
2023-02-27T15:22:50.867Z,99371.56
2023-02-27T15:25:46.915Z,99374.84
2023-02-27T15:28:30.854Z,99375.81
2023-02-27T15:30:57.969Z,99383.25
2023-02-27T15:33:29.004Z,99374.91
2023-02-27T15:35:56.703Z,99377.81
2023-02-27T15:38:29.233Z,99380.00
2023-02-27T15:40:57.314Z,99383.31
2023-02-27T15:43:26.123Z,99378.94
2023-02-27T15:45:53.475Z,99372.13
2023-02-27T15:48:20.888Z,99377.19
2023-02-27T15:50:57.499Z,99375.00
2023-02-27T15:53:26.467Z,99382.03
2023-02-27T15:55:55.213Z,99365.22
2023-02-27T15:58:28.123Z,99384.41
2023-02-27T16:01:07.759Z,99379.28
2023-02-27T16:03:42.982Z,99386.38
2023-02-27T16:06:18.546Z,99396.22
2023-02-27T16:08:51.168Z,99399.75
2023-02-27T16:11:23.093Z,99399.91
2023-02-27T16:13:49.922Z,99407.63
2023-02-27T16:16:28.414Z,99404.38
2023-02-27T16:18:58.343Z,99411.53
2023-02-27T16:21:31.314Z,99406.59
2023-02-27T16:24:21.349Z,99410.22
2023-02-27T16:26:52.790Z,99416.31
2023-02-27T16:29:22.360Z,99413.78
2023-02-27T16:31:55.025Z,99427.88
2023-02-27T16:34:46.686Z,99425.34
2023-02-27T16:37:21.289Z,99422.03
2023-02-27T16:39:51.127Z,99425.59
2023-02-27T16:42:18.159Z,99423.13
2023-02-27T16:44:44.821Z,99428.38
2023-02-27T16:47:11.414Z,99434.63
2023-02-27T16:49:39.075Z,99432.03
2023-02-27T16:52:07.361Z,99433.75
2023-02-27T16:54:35.255Z,99444.25
2023-02-27T16:57:01.832Z,99437.47
2023-02-27T16:59:30.252Z,99442.78
2023-02-27T17:01:58.301Z,99441.31
2023-02-27T17:04:26.332Z,99441.47
2023-02-27T17:06:54.231Z,99435.50
2023-02-27T17:09:20.958Z,99446.81
2023-02-27T17:11:47.567Z,99450.44
2023-02-27T17:14:14.229Z,99455.66
2023-02-27T17:16:41.105Z,99452.25
2023-02-27T17:19:08.302Z,99451.44
2023-02-27T17:21:35.082Z,99461.91
2023-02-27T17:24:02.348Z,99465.41
2023-02-27T17:26:29.418Z,99466.31
2023-02-27T17:28:56.494Z,99467.25
2023-02-27T17:31:24.138Z,99475.06
2023-02-27T17:33:52.445Z,99475.06
2023-02-27T17:36:20.955Z,99469.09
2023-02-27T17:38:48.850Z,99474.31
2023-02-27T17:41:16.408Z,99477.88
2023-02-27T17:43:43.052Z,99478.78
2023-02-27T17:46:11.418Z,99480.53
2023-02-27T17:48:38.778Z,99483.19
2023-02-27T17:51:07.249Z,99484.09
2023-02-27T17:53:35.316Z,99490.16
2023-02-27T17:56:02.121Z,99488.44
2023-02-27T17:58:28.771Z,99489.34
2023-02-27T18:00:55.969Z,99488.53
2023-02-27T18:03:22.573Z,99503.22
2023-02-27T18:05:52.690Z,99504.97
2023-02-27T18:08:19.452Z,99509.31
2023-02-27T18:10:50.316Z,99498.13
2023-02-27T18:13:18.498Z,99512.84
2023-02-27T18:15:46.011Z,99504.25
2023-02-27T18:18:14.324Z,99512.00
2023-02-27T18:20:41.021Z,99504.28
2023-02-27T18:23:08.807Z,99506.00
2023-02-27T18:25:36.468Z,99506.84
2023-02-27T18:28:03.880Z,99510.31
2023-02-27T18:30:33.444Z,99523.25
2023-02-27T18:33:00.319Z,99516.38
2023-02-27T18:35:27.792Z,99519.84
2023-02-27T18:37:54.459Z,99519.81
2023-02-27T18:40:25.030Z,99525.88
2023-02-27T18:42:55.428Z,99519.81
2023-02-27T18:45:22.446Z,99523.28
2023-02-27T18:47:48.992Z,99525.00
2023-02-27T18:50:15.966Z,99527.59
2023-02-27T18:52:42.534Z,99523.31
2023-02-27T18:55:10.844Z,99524.16
2023-02-27T18:57:37.407Z,99520.72
2023-02-27T19:00:06.051Z,99513.84
2023-02-27T19:02:32.670Z,99517.28
2023-02-27T19:05:01.005Z,99522.44
2023-02-27T19:07:30.052Z,99519.88
2023-02-27T19:09:56.624Z,99513.81
2023-02-27T19:12:23.234Z,99519.84
2023-02-27T19:14:50.106Z,99519.84
2023-02-27T19:17:16.757Z,99523.28
2023-02-27T19:19:43.414Z,99520.72
2023-02-27T19:22:09.980Z,99519.84
2023-02-27T19:24:36.588Z,99521.56
2023-02-27T19:27:03.311Z,99525.00
2023-02-27T19:29:29.851Z,99520.72
2023-02-27T19:31:56.444Z,99519.00
2023-02-27T19:34:23.132Z,99524.16
2023-02-27T19:36:49.786Z,99524.09
2023-02-27T19:39:16.385Z,99521.47
2023-02-27T19:41:43.109Z,99530.06
2023-02-27T19:44:09.820Z,99525.72
2023-02-27T19:46:36.482Z,99523.97
2023-02-27T19:49:05.246Z,99523.97
2023-02-27T19:51:32.119Z,99530.03
2023-02-27T19:53:58.927Z,99520.50
2023-02-27T19:56:27.429Z,99516.19
2023-02-27T19:58:54.571Z,99520.53
2023-02-27T20:01:26.427Z,99520.56
2023-02-27T20:03:53.659Z,99521.41
2023-02-27T20:06:23.786Z,99529.22
2023-02-27T20:08:51.980Z,99534.38
2023-02-27T20:11:20.771Z,99524.03
2023-02-27T20:13:48.631Z,99528.31
2023-02-27T20:16:18.092Z,99527.47
2023-02-27T20:18:45.255Z,99530.03
2023-02-27T20:21:17.922Z,99528.34
2023-02-27T20:23:46.332Z,99530.94
2023-02-27T20:26:18.982Z,99535.31
2023-02-27T20:28:46.486Z,99532.75
2023-02-27T20:31:14.902Z,99527.59
2023-02-27T20:33:42.049Z,99535.38
2023-02-27T20:36:10.544Z,99519.91
2023-02-27T20:38:40.989Z,99536.28
2023-02-27T20:41:19.769Z,99535.44
2023-02-27T20:43:47.973Z,99540.63
2023-02-27T20:46:18.014Z,99535.47
2023-02-27T20:48:45.012Z,99531.19
2023-02-27T20:51:15.288Z,99535.53
2023-02-27T20:53:44.569Z,99541.56
2023-02-27T20:56:11.692Z,99549.34
2023-02-27T20:58:39.272Z,99532.13
2023-02-27T21:01:11.652Z,99531.28
2023-02-27T21:03:40.135Z,99533.88
2023-02-27T21:06:08.965Z,99531.31
2023-02-27T21:08:41.157Z,99534.75
2023-02-27T21:11:13.039Z,99533.88
2023-02-27T21:13:40.072Z,99529.59
2023-02-27T21:16:09.304Z,99536.53
2023-02-27T21:18:38.160Z,99535.69
2023-02-27T21:21:17.281Z,99538.25
2023-02-27T21:23:44.402Z,99542.56
2023-02-27T21:26:21.795Z,99543.44
2023-02-27T21:29:01.108Z,99538.31
2023-02-27T21:31:30.885Z,99547.75
2023-02-27T21:34:00.894Z,99538.31
2023-02-27T21:36:33.378Z,99543.47
2023-02-27T21:39:03.221Z,99540.03
2023-02-27T21:41:30.925Z,99540.88
2023-02-27T21:44:02.881Z,99539.16
2023-02-27T21:46:30.498Z,99535.75
2023-02-27T21:48:57.328Z,99530.59
2023-02-27T21:51:38.609Z,99534.88
2023-02-27T21:54:06.763Z,99533.16
2023-02-27T21:56:33.796Z,99526.28
2023-02-27T21:59:02.008Z,99522.84
2023-02-27T22:01:29.741Z,99521.09
2023-02-27T22:03:56.960Z,99527.13
2023-02-27T22:06:24.908Z,99515.94
2023-02-27T22:08:56.049Z,99521.13
2023-02-27T22:11:23.968Z,99513.38
2023-02-27T22:13:50.625Z,99514.22
2023-02-27T22:16:17.910Z,99521.97
2023-02-27T22:18:44.711Z,99516.81
2023-02-27T22:21:16.167Z,99524.56
2023-02-27T22:23:43.943Z,99522.81
2023-02-27T22:26:29.247Z,99520.25
2023-02-27T22:28:57.340Z,99521.97
2023-02-27T22:31:26.525Z,99524.56
2023-02-27T22:33:55.813Z,99520.22
2023-02-27T22:36:27.684Z,99521.09
2023-02-27T22:38:54.207Z,99523.66
2023-02-27T22:41:26.559Z,99518.50
2023-02-27T22:43:53.577Z,99526.22
2023-02-27T22:46:26.996Z,99526.22
2023-02-27T22:48:58.995Z,99527.06
2023-02-27T22:51:27.859Z,99521.03
2023-02-27T22:53:57.232Z,99521.91
2023-02-27T22:56:24.739Z,99518.47
2023-02-27T22:58:51.704Z,99518.47
2023-02-27T23:01:30.420Z,99511.59
2023-02-27T23:04:00.828Z,99511.56
2023-02-27T23:06:33.179Z,99512.41
2023-02-27T23:09:00.539Z,99510.69
2023-02-27T23:11:27.810Z,99520.16
2023-02-27T23:13:54.574Z,99521.00
2023-02-27T23:16:21.381Z,99518.44
2023-02-27T23:18:56.870Z,99518.41
2023-02-27T23:21:32.161Z,99527.00
2023-02-27T23:23:58.822Z,99524.41
2023-02-27T23:26:28.346Z,99521.84
2023-02-27T23:28:56.174Z,99523.53
2023-02-27T23:31:22.800Z,99520.09
2023-02-27T23:33:49.416Z,99526.97
2023-02-27T23:36:16.037Z,99524.41
2023-02-27T23:38:43.078Z,99521.81
2023-02-27T23:41:10.183Z,99526.09
2023-02-27T23:43:36.767Z,99526.09
2023-02-27T23:46:08.285Z,99520.06
2023-02-27T23:48:35.685Z,99523.50
2023-02-27T23:51:04.620Z,99526.09
2023-02-27T23:53:32.038Z,99530.34
2023-02-27T23:55:58.639Z,99538.94
2023-02-27T23:58:25.472Z,99524.34
